createdAt,value
2022-08-18T00:00:24.600Z,18
2022-08-18T00:15:24.445Z,18
2022-08-18T00:30:24.158Z,17
2022-08-18T00:45:24.114Z,16
2022-08-18T01:00:24.648Z,17
2022-08-18T01:15:30.689Z,19
2022-08-18T01:30:24.243Z,17
2022-08-18T01:45:24.211Z,17
2022-08-18T02:00:24.159Z,21
2022-08-18T02:15:24.386Z,19
2022-08-18T02:30:24.302Z,19
2022-08-18T02:45:24.891Z,19
2022-08-18T03:00:24.273Z,20
2022-08-18T03:15:26.815Z,19
2022-08-18T03:30:24.375Z,19
2022-08-18T03:45:24.663Z,17
2022-08-18T04:00:23.706Z,19
2022-08-18T04:15:24.775Z,25
2022-08-18T04:30:24.724Z,22
2022-08-18T04:45:24.381Z,22
2022-08-18T05:00:23.979Z,17
2022-08-18T05:15:24.486Z,18
2022-08-18T05:30:23.970Z,19
2022-08-18T05:45:24.353Z,27
2022-08-18T06:00:24.109Z,27
2022-08-18T06:15:24.405Z,26
2022-08-18T06:30:24.472Z,25
2022-08-18T06:45:35.974Z,26
2022-08-18T07:00:25.034Z,19
2022-08-18T07:15:24.722Z,18
2022-08-18T07:30:24.687Z,16
2022-08-18T07:45:24.544Z,14
2022-08-18T08:00:59.838Z,15
2022-08-18T08:15:27.330Z,13
2022-08-18T08:45:24.102Z,11
2022-08-18T09:15:04.730Z,5
2022-08-18T09:30:03.049Z,0
2022-08-18T09:45:04.646Z,0
2022-08-18T10:00:04.303Z,0
2022-08-18T10:15:02.725Z,0
2022-08-18T10:15:34.311Z,9
2022-08-18T10:30:31.169Z,11
2022-08-18T11:00:26.446Z,10
2022-08-18T11:15:24.429Z,12
2022-08-18T11:30:31.455Z,11
2022-08-18T11:45:25.201Z,12
2022-08-18T12:00:24.872Z,12
2022-08-18T12:15:43.567Z,12
2022-08-18T12:30:26.449Z,11
2022-08-18T12:45:25.061Z,8
2022-08-18T13:00:29.519Z,9
2022-08-18T13:15:26.474Z,11
2022-08-18T13:30:32.664Z,10
2022-08-18T13:45:26.337Z,8
2022-08-18T14:00:31.188Z,9
2022-08-18T14:15:25.069Z,8
2022-08-18T14:30:25.530Z,10
2022-08-18T14:45:35.552Z,9
2022-08-18T15:00:24.735Z,8
2022-08-18T15:15:25.264Z,9
2022-08-18T15:30:24.531Z,8
2022-08-18T15:45:26.978Z,8
2022-08-18T16:00:26.132Z,8
2022-08-18T16:15:26.351Z,8
2022-08-18T16:30:25.102Z,8
2022-08-18T16:45:25.079Z,11
2022-08-18T17:00:24.380Z,10
2022-08-18T17:15:24.850Z,8
2022-08-18T17:30:24.580Z,26
2022-08-18T17:45:24.340Z,12
2022-08-18T18:00:24.766Z,8
2022-08-18T18:30:28.473Z,12
2022-08-18T18:45:23.713Z,5
2022-08-18T19:00:03.766Z,6
2022-08-18T19:00:24.050Z,12
2022-08-18T19:15:24.871Z,12
2022-08-18T19:30:24.778Z,13
2022-08-18T19:45:24.805Z,9
2022-08-18T20:00:24.949Z,11
2022-08-18T20:15:24.761Z,16
2022-08-18T20:30:24.310Z,11
2022-08-18T20:45:24.871Z,9
2022-08-18T21:00:27.856Z,10
2022-08-18T21:15:24.910Z,10
2022-08-18T21:30:24.566Z,12
2022-08-18T21:45:24.947Z,14
2022-08-18T22:00:25.070Z,12
2022-08-18T22:15:24.734Z,11
2022-08-18T22:30:24.895Z,16
2022-08-18T22:45:24.793Z,12
2022-08-18T23:00:25.534Z,13
2022-08-18T23:15:25.053Z,12
2022-08-18T23:30:30.618Z,10
2022-08-18T23:45:24.943Z,12
